CheckWX is a tool to help pilots better visualize weather data.  It is not intended as a substitute for an official pre-flight weather briefing.

03:58:15 UTC

KFMM METAR
Fort Morgan Municipal Airport
Fort Morgan, Colorado, USA
Current

23 mins ago

KFMM 270335Z AUTO 06014KT 10SM -RA 13/09 A2980 RMK AO2 LTG DSNT NE AND S T01260094
Observed
May-27 @ 03:35 UTC
Wind
  • 060° at 14 KTS
Visibility
10 SM
Conditions
Light Rain
Temperature
13°C / 55°F
Dewpoint
C / 48°F
Humidity
77%
Altimeter
29.8" Hg
Pressure
1009.12 hPa
Previous

43 mins ago

KFMM 270315Z AUTO 07013KT 10SM VCTS 13/09 A2981 RMK AO2 LTG DSNT E AND SE T01300091
Observed
May-27 @ 03:15 UTC
Wind
  • 070° at 13 KTS
Visibility
10 SM
Conditions
Area Thunderstorm
Temperature
13°C / 55°F
Dewpoint
C / 48°F
Humidity
77%
Altimeter
29.81" Hg
Pressure
1009.52 hPa
Previous

1 hour ago

KFMM 270255Z AUTO 02019G27KT 10SM -RA 13/10 A2981 RMK AO2 LTG DSNT NE S AND NW T01250095
Observed
May-27 @ 02:55 UTC
Wind
  • 020° at 19 KTS
  • Gusting to 27 KTS
Visibility
10 SM
Conditions
Light Rain
Temperature
13°C / 55°F
Dewpoint
10°C / 50°F
Humidity
82%
Altimeter
29.81" Hg
Pressure
1009.52 hPa